sensor_id;sensor_type;location;lat;lon;timestamp;temperature;humidity
67777;DHT22;54576;52.020;5.536;2023-05-10T00:02:07;14.00;99.90
67777;DHT22;54576;52.020;5.536;2023-05-10T00:04:33;14.10;99.90
67777;DHT22;54576;52.020;5.536;2023-05-10T00:06:58;14.10;99.90
67777;DHT22;54576;52.020;5.536;2023-05-10T00:09:24;14.00;99.90
67777;DHT22;54576;52.020;5.536;2023-05-10T00:11:50;14.00;99.90
67777;DHT22;54576;52.020;5.536;2023-05-10T00:14:15;14.10;99.90
67777;DHT22;54576;52.020;5.536;2023-05-10T00:16:41;14.10;99.90
67777;DHT22;54576;52.020;5.536;2023-05-10T00:19:07;14.10;99.90
67777;DHT22;54576;52.020;5.536;2023-05-10T00:21:32;14.00;99.90
67777;DHT22;54576;52.020;5.536;2023-05-10T00:23:59;14.10;99.90
67777;DHT22;54576;52.020;5.536;2023-05-10T00:26:25;14.10;99.90
67777;DHT22;54576;52.020;5.536;2023-05-10T00:28:50;14.10;99.90
67777;DHT22;54576;52.020;5.536;2023-05-10T00:31:16;14.10;99.90
67777;DHT22;54576;52.020;5.536;2023-05-10T00:33:41;14.10;99.90
67777;DHT22;54576;52.020;5.536;2023-05-10T00:36:07;14.00;99.90
67777;DHT22;54576;52.020;5.536;2023-05-10T00:38:33;14.00;99.90
67777;DHT22;54576;52.020;5.536;2023-05-10T00:40:59;14.00;99.90
67777;DHT22;54576;52.020;5.536;2023-05-10T00:43:24;14.00;99.90
67777;DHT22;54576;52.020;5.536;2023-05-10T00:45:50;14.00;99.90
67777;DHT22;54576;52.020;5.536;2023-05-10T00:48:16;14.00;99.90
67777;DHT22;54576;52.020;5.536;2023-05-10T00:50:41;14.00;99.90
67777;DHT22;54576;52.020;5.536;2023-05-10T00:53:07;14.00;99.90
67777;DHT22;54576;52.020;5.536;2023-05-10T00:55:33;14.00;99.90
67777;DHT22;54576;52.020;5.536;2023-05-10T00:57:59;14.00;99.90
67777;DHT22;54576;52.020;5.536;2023-05-10T01:00:25;14.00;99.90
67777;DHT22;54576;52.020;5.536;2023-05-10T01:02:51;14.00;99.90
67777;DHT22;54576;52.020;5.536;2023-05-10T01:05:18;14.00;99.90
67777;DHT22;54576;52.020;5.536;2023-05-10T01:07:47;14.00;99.90
67777;DHT22;54576;52.020;5.536;2023-05-10T01:10:13;14.00;99.90
67777;DHT22;54576;52.020;5.536;2023-05-10T01:12:40;13.90;99.90
67777;DHT22;54576;52.020;5.536;2023-05-10T01:15:08;13.90;99.90
67777;DHT22;54576;52.020;5.536;2023-05-10T01:17:35;13.90;99.90
67777;DHT22;54576;52.020;5.536;2023-05-10T01:20:03;13.90;99.90
67777;DHT22;54576;52.020;5.536;2023-05-10T01:31:18;13.90;99.90
67777;DHT22;54576;52.020;5.536;2023-05-10T01:36:31;13.90;99.90
67777;DHT22;54576;52.020;5.536;2023-05-10T01:39:21;13.90;99.90
67777;DHT22;54576;52.020;5.536;2023-05-10T01:41:54;13.90;99.90
67777;DHT22;54576;52.020;5.536;2023-05-10T01:44:42;13.90;99.90
67777;DHT22;54576;52.020;5.536;2023-05-10T01:47:55;14.00;99.90
67777;DHT22;54576;52.020;5.536;2023-05-10T01:50:04;13.90;99.90
67777;DHT22;54576;52.020;5.536;2023-05-10T01:52:32;13.90;99.90
67777;DHT22;54576;52.020;5.536;2023-05-10T01:55:04;13.90;99.90
67777;DHT22;54576;52.020;5.536;2023-05-10T01:57:35;13.90;99.90
67777;DHT22;54576;52.020;5.536;2023-05-10T02:00:03;14.00;99.90
67777;DHT22;54576;52.020;5.536;2023-05-10T02:02:37;14.00;99.90
67777;DHT22;54576;52.020;5.536;2023-05-10T02:05:05;14.00;99.90
67777;DHT22;54576;52.020;5.536;2023-05-10T02:07:34;13.90;99.90
67777;DHT22;54576;52.020;5.536;2023-05-10T02:10:05;14.00;99.90
67777;DHT22;54576;52.020;5.536;2023-05-10T02:12:33;14.00;99.90
67777;DHT22;54576;52.020;5.536;2023-05-10T02:15:00;14.00;99.90
67777;DHT22;54576;52.020;5.536;2023-05-10T02:17:27;13.90;99.90
67777;DHT22;54576;52.020;5.536;2023-05-10T02:19:54;14.00;99.90
67777;DHT22;54576;52.020;5.536;2023-05-10T02:22:20;13.90;99.90
67777;DHT22;54576;52.020;5.536;2023-05-10T02:24:47;14.00;99.90
67777;DHT22;54576;52.020;5.536;2023-05-10T02:27:15;14.00;99.90
67777;DHT22;54576;52.020;5.536;2023-05-10T02:29:42;14.00;99.90
67777;DHT22;54576;52.020;5.536;2023-05-10T02:32:10;14.00;99.90
67777;DHT22;54576;52.020;5.536;2023-05-10T02:34:36;13.90;99.90
67777;DHT22;54576;52.020;5.536;2023-05-10T02:37:02;13.90;99.90
67777;DHT22;54576;52.020;5.536;2023-05-10T02:39:29;13.90;99.90
67777;DHT22;54576;52.020;5.536;2023-05-10T02:41:56;13.90;99.90
67777;DHT22;54576;52.020;5.536;2023-05-10T02:44:22;13.90;99.90
67777;DHT22;54576;52.020;5.536;2023-05-10T02:46:48;13.90;99.90
67777;DHT22;54576;52.020;5.536;2023-05-10T02:49:15;13.90;99.90
67777;DHT22;54576;52.020;5.536;2023-05-10T02:51:44;13.90;99.90
67777;DHT22;54576;52.020;5.536;2023-05-10T02:54:20;13.90;99.90
67777;DHT22;54576;52.020;5.536;2023-05-10T02:56:58;13.90;99.90
67777;DHT22;54576;52.020;5.536;2023-05-10T02:59:28;13.90;99.90
67777;DHT22;54576;52.020;5.536;2023-05-10T03:01:54;13.80;99.90
67777;DHT22;54576;52.020;5.536;2023-05-10T03:04:19;13.80;99.90
67777;DHT22;54576;52.020;5.536;2023-05-10T03:06:46;13.80;99.90
67777;DHT22;54576;52.020;5.536;2023-05-10T03:09:12;13.80;99.90
67777;DHT22;54576;52.020;5.536;2023-05-10T03:17:52;13.70;99.90
67777;DHT22;54576;52.020;5.536;2023-05-10T03:20:25;13.70;99.90
67777;DHT22;54576;52.020;5.536;2023-05-10T03:22:59;13.60;99.90
67777;DHT22;54576;52.020;5.536;2023-05-10T03:25:26;13.60;99.90
67777;DHT22;54576;52.020;5.536;2023-05-10T03:27:53;13.60;99.90
67777;DHT22;54576;52.020;5.536;2023-05-10T03:30:19;13.50;99.90
67777;DHT22;54576;52.020;5.536;2023-05-10T03:32:45;13.50;99.90
67777;DHT22;54576;52.020;5.536;2023-05-10T03:35:12;13.50;99.90
67777;DHT22;54576;52.020;5.536;2023-05-10T03:37:38;13.50;99.90
67777;DHT22;54576;52.020;5.536;2023-05-10T03:40:05;13.50;99.90
67777;DHT22;54576;52.020;5.536;2023-05-10T03:42:30;13.50;99.90
67777;DHT22;54576;52.020;5.536;2023-05-10T03:44:56;13.40;99.90
67777;DHT22;54576;52.020;5.536;2023-05-10T03:47:22;13.40;99.90
67777;DHT22;54576;52.020;5.536;2023-05-10T03:49:47;13.40;99.90
67777;DHT22;54576;52.020;5.536;2023-05-10T03:52:13;13.30;99.90
67777;DHT22;54576;52.020;5.536;2023-05-10T03:54:39;13.40;99.90
67777;DHT22;54576;52.020;5.536;2023-05-10T03:57:04;13.40;99.90
67777;DHT22;54576;52.020;5.536;2023-05-10T03:59:30;13.30;99.90
67777;DHT22;54576;52.020;5.536;2023-05-10T04:01:56;13.40;99.90
67777;DHT22;54576;52.020;5.536;2023-05-10T04:04:21;13.30;99.90
67777;DHT22;54576;52.020;5.536;2023-05-10T04:06:48;13.40;99.90
67777;DHT22;54576;52.020;5.536;2023-05-10T04:09:14;13.40;99.90
67777;DHT22;54576;52.020;5.536;2023-05-10T04:11:39;13.40;99.90
67777;DHT22;54576;52.020;5.536;2023-05-10T04:14:05;13.40;99.90
67777;DHT22;54576;52.020;5.536;2023-05-10T04:16:30;13.40;99.90
67777;DHT22;54576;52.020;5.536;2023-05-10T04:18:56;13.40;99.90
67777;DHT22;54576;52.020;5.536;2023-05-10T04:21:22;13.40;99.90
67777;DHT22;54576;52.020;5.536;2023-05-10T04:23:48;13.50;99.90
67777;DHT22;54576;52.020;5.536;2023-05-10T04:26:13;13.50;99.90
67777;DHT22;54576;52.020;5.536;2023-05-10T04:28:39;13.40;99.90
67777;DHT22;54576;52.020;5.536;2023-05-10T04:31:07;13.40;99.90
67777;DHT22;54576;52.020;5.536;2023-05-10T04:33:33;13.50;99.90
67777;DHT22;54576;52.020;5.536;2023-05-10T04:35:59;13.40;99.90
67777;DHT22;54576;52.020;5.536;2023-05-10T04:38:25;13.50;99.90
67777;DHT22;54576;52.020;5.536;2023-05-10T04:40:50;13.40;99.90
67777;DHT22;54576;52.020;5.536;2023-05-10T04:43:16;13.50;99.90
67777;DHT22;54576;52.020;5.536;2023-05-10T04:45:41;13.50;99.90
67777;DHT22;54576;52.020;5.536;2023-05-10T04:48:07;13.40;99.90
67777;DHT22;54576;52.020;5.536;2023-05-10T04:50:33;13.40;99.90
67777;DHT22;54576;52.020;5.536;2023-05-10T04:52:58;13.50;99.90
67777;DHT22;54576;52.020;5.536;2023-05-10T04:55:24;13.50;99.90
67777;DHT22;54576;52.020;5.536;2023-05-10T04:57:50;13.50;99.90
67777;DHT22;54576;52.020;5.536;2023-05-10T05:00:16;13.50;99.90
67777;DHT22;54576;52.020;5.536;2023-05-10T05:02:45;13.60;99.90
67777;DHT22;54576;52.020;5.536;2023-05-10T05:05:12;13.60;99.90
67777;DHT22;54576;52.020;5.536;2023-05-10T05:07:37;13.60;99.90
67777;DHT22;54576;52.020;5.536;2023-05-10T05:10:05;13.60;99.90
67777;DHT22;54576;52.020;5.536;2023-05-10T05:12:34;13.60;99.90
67777;DHT22;54576;52.020;5.536;2023-05-10T05:15:00;13.60;99.90
67777;DHT22;54576;52.020;5.536;2023-05-10T05:17:26;13.70;99.90
67777;DHT22;54576;52.020;5.536;2023-05-10T05:19:52;13.70;99.90
67777;DHT22;54576;52.020;5.536;2023-05-10T05:22:18;13.70;99.90
67777;DHT22;54576;52.020;5.536;2023-05-10T05:24:44;13.70;99.90
67777;DHT22;54576;52.020;5.536;2023-05-10T05:27:10;13.80;99.90
67777;DHT22;54576;52.020;5.536;2023-05-10T05:29:36;13.80;99.90
67777;DHT22;54576;52.020;5.536;2023-05-10T05:32:01;13.80;99.90
67777;DHT22;54576;52.020;5.536;2023-05-10T05:34:27;13.80;99.90
67777;DHT22;54576;52.020;5.536;2023-05-10T05:36:52;13.70;99.90
67777;DHT22;54576;52.020;5.536;2023-05-10T05:39:19;13.70;99.90
67777;DHT22;54576;52.020;5.536;2023-05-10T05:41:44;13.80;99.90
67777;DHT22;54576;52.020;5.536;2023-05-10T05:44:11;13.80;99.90
67777;DHT22;54576;52.020;5.536;2023-05-10T05:46:37;13.80;99.90
67777;DHT22;54576;52.020;5.536;2023-05-10T05:49:02;13.80;99.90
67777;DHT22;54576;52.020;5.536;2023-05-10T05:51:28;13.80;99.90
67777;DHT22;54576;52.020;5.536;2023-05-10T05:53:53;13.80;99.90
67777;DHT22;54576;52.020;5.536;2023-05-10T05:56:19;13.80;99.90
67777;DHT22;54576;52.020;5.536;2023-05-10T05:58:50;13.80;99.90
67777;DHT22;54576;52.020;5.536;2023-05-10T06:01:15;13.80;99.90
67777;DHT22;54576;52.020;5.536;2023-05-10T06:03:41;13.80;99.90
67777;DHT22;54576;52.020;5.536;2023-05-10T06:06:07;13.70;99.90
67777;DHT22;54576;52.020;5.536;2023-05-10T06:08:32;13.70;99.90
67777;DHT22;54576;52.020;5.536;2023-05-10T06:10:59;13.80;99.90
67777;DHT22;54576;52.020;5.536;2023-05-10T06:13:25;13.70;99.90
67777;DHT22;54576;52.020;5.536;2023-05-10T06:15:54;13.70;99.90
67777;DHT22;54576;52.020;5.536;2023-05-10T06:18:19;13.70;99.90
67777;DHT22;54576;52.020;5.536;2023-05-10T06:20:45;13.70;99.90
67777;DHT22;54576;52.020;5.536;2023-05-10T06:23:10;13.70;99.90
67777;DHT22;54576;52.020;5.536;2023-05-10T06:25:38;13.70;99.90
67777;DHT22;54576;52.020;5.536;2023-05-10T06:28:04;13.70;99.90
67777;DHT22;54576;52.020;5.536;2023-05-10T06:30:29;13.70;99.90
67777;DHT22;54576;52.020;5.536;2023-05-10T06:32:55;13.70;99.90
67777;DHT22;54576;52.020;5.536;2023-05-10T06:35:21;13.70;99.90
67777;DHT22;54576;52.020;5.536;2023-05-10T06:37:47;13.70;99.90
67777;DHT22;54576;52.020;5.536;2023-05-10T06:40:12;13.70;99.90
67777;DHT22;54576;52.020;5.536;2023-05-10T06:42:38;13.60;99.90
67777;DHT22;54576;52.020;5.536;2023-05-10T06:45:04;13.60;99.90
67777;DHT22;54576;52.020;5.536;2023-05-10T06:47:30;13.70;99.90
67777;DHT22;54576;52.020;5.536;2023-05-10T06:49:56;13.70;99.90
67777;DHT22;54576;52.020;5.536;2023-05-10T06:52:22;13.80;99.90
67777;DHT22;54576;52.020;5.536;2023-05-10T06:54:48;13.80;99.90
67777;DHT22;54576;52.020;5.536;2023-05-10T06:57:14;13.80;99.90
67777;DHT22;54576;52.020;5.536;2023-05-10T06:59:39;13.80;99.90
67777;DHT22;54576;52.020;5.536;2023-05-10T07:02:05;13.70;99.90
67777;DHT22;54576;52.020;5.536;2023-05-10T07:04:31;13.70;99.90
67777;DHT22;54576;52.020;5.536;2023-05-10T07:06:57;13.80;99.90
67777;DHT22;54576;52.020;5.536;2023-05-10T07:09:22;13.90;99.90
67777;DHT22;54576;52.020;5.536;2023-05-10T07:11:49;13.90;99.90
67777;DHT22;54576;52.020;5.536;2023-05-10T07:14:15;14.00;99.90
67777;DHT22;54576;52.020;5.536;2023-05-10T07:16:41;14.00;99.90
67777;DHT22;54576;52.020;5.536;2023-05-10T07:19:06;14.00;99.90
67777;DHT22;54576;52.020;5.536;2023-05-10T07:21:32;14.10;99.90
67777;DHT22;54576;52.020;5.536;2023-05-10T07:23:57;14.20;99.90
67777;DHT22;54576;52.020;5.536;2023-05-10T07:26:23;14.30;99.90
67777;DHT22;54576;52.020;5.536;2023-05-10T07:28:49;14.40;99.90
67777;DHT22;54576;52.020;5.536;2023-05-10T07:31:15;14.50;99.90
67777;DHT22;54576;52.020;5.536;2023-05-10T07:33:40;14.60;99.90
67777;DHT22;54576;52.020;5.536;2023-05-10T07:36:06;14.60;99.90
67777;DHT22;54576;52.020;5.536;2023-05-10T07:38:32;14.60;99.90
67777;DHT22;54576;52.020;5.536;2023-05-10T07:40:57;14.60;99.90
67777;DHT22;54576;52.020;5.536;2023-05-10T07:43:23;14.50;99.90
67777;DHT22;54576;52.020;5.536;2023-05-10T07:45:48;14.50;99.90
67777;DHT22;54576;52.020;5.536;2023-05-10T07:48:17;14.40;99.90
67777;DHT22;54576;52.020;5.536;2023-05-10T07:50:42;14.40;99.90
67777;DHT22;54576;52.020;5.536;2023-05-10T07:53:08;14.30;99.90
67777;DHT22;54576;52.020;5.536;2023-05-10T07:55:33;14.20;99.90
67777;DHT22;54576;52.020;5.536;2023-05-10T07:57:59;14.30;99.90
67777;DHT22;54576;52.020;5.536;2023-05-10T08:00:26;14.30;99.90
67777;DHT22;54576;52.020;5.536;2023-05-10T08:02:52;14.40;99.90
67777;DHT22;54576;52.020;5.536;2023-05-10T08:05:18;14.40;99.90
67777;DHT22;54576;52.020;5.536;2023-05-10T08:07:43;14.40;99.90
67777;DHT22;54576;52.020;5.536;2023-05-10T08:10:09;14.40;99.90
67777;DHT22;54576;52.020;5.536;2023-05-10T08:12:36;14.40;99.90
67777;DHT22;54576;52.020;5.536;2023-05-10T08:15:03;14.50;99.90
67777;DHT22;54576;52.020;5.536;2023-05-10T08:17:28;14.50;99.90
67777;DHT22;54576;52.020;5.536;2023-05-10T08:19:54;14.60;99.90
67777;DHT22;54576;52.020;5.536;2023-05-10T08:22:20;14.70;99.90
67777;DHT22;54576;52.020;5.536;2023-05-10T08:24:45;14.80;99.90
67777;DHT22;54576;52.020;5.536;2023-05-10T08:27:11;14.90;99.90
67777;DHT22;54576;52.020;5.536;2023-05-10T08:29:37;15.00;99.90
67777;DHT22;54576;52.020;5.536;2023-05-10T08:32:03;15.00;99.90
67777;DHT22;54576;52.020;5.536;2023-05-10T08:34:28;15.00;99.90
67777;DHT22;54576;52.020;5.536;2023-05-10T08:36:54;15.10;99.90
67777;DHT22;54576;52.020;5.536;2023-05-10T08:39:19;15.10;99.90
67777;DHT22;54576;52.020;5.536;2023-05-10T08:41:46;15.20;99.90
67777;DHT22;54576;52.020;5.536;2023-05-10T08:44:13;15.30;99.90
67777;DHT22;54576;52.020;5.536;2023-05-10T08:46:44;15.30;99.90
67777;DHT22;54576;52.020;5.536;2023-05-10T08:49:13;15.30;99.90
67777;DHT22;54576;52.020;5.536;2023-05-10T08:51:44;15.40;99.90
67777;DHT22;54576;52.020;5.536;2023-05-10T08:54:12;15.40;99.90
67777;DHT22;54576;52.020;5.536;2023-05-10T08:56:38;15.40;99.90
67777;DHT22;54576;52.020;5.536;2023-05-10T08:59:04;15.50;99.90
67777;DHT22;54576;52.020;5.536;2023-05-10T09:01:31;15.60;99.90
67777;DHT22;54576;52.020;5.536;2023-05-10T09:03:58;15.60;99.90
67777;DHT22;54576;52.020;5.536;2023-05-10T09:06:24;15.50;99.90
67777;DHT22;54576;52.020;5.536;2023-05-10T09:08:49;15.60;99.90
67777;DHT22;54576;52.020;5.536;2023-05-10T09:11:16;15.60;99.90
67777;DHT22;54576;52.020;5.536;2023-05-10T09:13:42;15.60;99.90
67777;DHT22;54576;52.020;5.536;2023-05-10T09:16:09;15.60;99.90
67777;DHT22;54576;52.020;5.536;2023-05-10T09:18:34;15.70;99.90
67777;DHT22;54576;52.020;5.536;2023-05-10T09:21:00;15.60;99.90
67777;DHT22;54576;52.020;5.536;2023-05-10T09:23:25;15.60;99.90
67777;DHT22;54576;52.020;5.536;2023-05-10T09:26:06;15.60;99.90
67777;DHT22;54576;52.020;5.536;2023-05-10T09:28:53;15.60;99.90
67777;DHT22;54576;52.020;5.536;2023-05-10T09:31:19;15.60;99.90
67777;DHT22;54576;52.020;5.536;2023-05-10T09:33:46;15.70;99.90
67777;DHT22;54576;52.020;5.536;2023-05-10T09:36:12;15.80;99.90
67777;DHT22;54576;52.020;5.536;2023-05-10T09:38:49;15.90;99.90
67777;DHT22;54576;52.020;5.536;2023-05-10T09:41:22;16.00;99.90
67777;DHT22;54576;52.020;5.536;2023-05-10T09:43:48;16.10;99.90
67777;DHT22;54576;52.020;5.536;2023-05-10T09:46:15;16.20;99.90
67777;DHT22;54576;52.020;5.536;2023-05-10T09:48:48;16.40;99.90
67777;DHT22;54576;52.020;5.536;2023-05-10T09:51:20;16.40;99.90
67777;DHT22;54576;52.020;5.536;2023-05-10T09:53:49;16.40;99.90
67777;DHT22;54576;52.020;5.536;2023-05-10T09:56:34;16.50;99.90
67777;DHT22;54576;52.020;5.536;2023-05-10T09:59:04;16.40;99.90
67777;DHT22;54576;52.020;5.536;2023-05-10T10:01:30;16.30;99.90
67777;DHT22;54576;52.020;5.536;2023-05-10T10:03:56;16.30;99.90
67777;DHT22;54576;52.020;5.536;2023-05-10T10:06:23;16.30;99.90
67777;DHT22;54576;52.020;5.536;2023-05-10T10:08:50;16.40;99.90
67777;DHT22;54576;52.020;5.536;2023-05-10T10:11:16;16.50;99.90
67777;DHT22;54576;52.020;5.536;2023-05-10T10:13:41;16.70;99.90
67777;DHT22;54576;52.020;5.536;2023-05-10T10:16:10;16.80;99.90
67777;DHT22;54576;52.020;5.536;2023-05-10T10:18:36;17.00;99.90
67777;DHT22;54576;52.020;5.536;2023-05-10T10:21:07;17.10;99.90
67777;DHT22;54576;52.020;5.536;2023-05-10T10:23:39;17.20;99.90
67777;DHT22;54576;52.020;5.536;2023-05-10T10:26:05;17.10;99.90
67777;DHT22;54576;52.020;5.536;2023-05-10T10:28:44;17.10;99.90
67777;DHT22;54576;52.020;5.536;2023-05-10T10:33:56;17.10;99.90
67777;DHT22;54576;52.020;5.536;2023-05-10T10:36:23;17.10;99.90
67777;DHT22;54576;52.020;5.536;2023-05-10T10:41:33;17.10;99.90
67777;DHT22;54576;52.020;5.536;2023-05-10T10:44:25;17.00;99.90
67777;DHT22;54576;52.020;5.536;2023-05-10T10:49:48;17.00;99.90
67777;DHT22;54576;52.020;5.536;2023-05-10T10:57:27;16.90;99.90
67777;DHT22;54576;52.020;5.536;2023-05-10T11:00:18;16.80;99.90
67777;DHT22;54576;52.020;5.536;2023-05-10T11:02:44;16.80;99.90
67777;DHT22;54576;52.020;5.536;2023-05-10T11:05:38;16.90;99.90
67777;DHT22;54576;52.020;5.536;2023-05-10T11:10:36;17.00;99.90
67777;DHT22;54576;52.020;5.536;2023-05-10T11:13:03;17.10;99.90
67777;DHT22;54576;52.020;5.536;2023-05-10T11:15:32;17.20;99.90
67777;DHT22;54576;52.020;5.536;2023-05-10T11:17:58;17.40;99.90
67777;DHT22;54576;52.020;5.536;2023-05-10T11:20:27;17.50;99.90
67777;DHT22;54576;52.020;5.536;2023-05-10T11:23:10;17.40;99.90
67777;DHT22;54576;52.020;5.536;2023-05-10T11:25:44;17.50;99.90
67777;DHT22;54576;52.020;5.536;2023-05-10T11:28:13;17.60;99.90
67777;DHT22;54576;52.020;5.536;2023-05-10T11:30:39;17.60;99.90
67777;DHT22;54576;52.020;5.536;2023-05-10T11:33:05;17.50;99.90
67777;DHT22;54576;52.020;5.536;2023-05-10T11:35:37;17.50;99.90
67777;DHT22;54576;52.020;5.536;2023-05-10T11:38:06;17.60;99.90
67777;DHT22;54576;52.020;5.536;2023-05-10T11:40:31;17.60;99.90
67777;DHT22;54576;52.020;5.536;2023-05-10T11:42:57;17.60;99.90
67777;DHT22;54576;52.020;5.536;2023-05-10T11:45:24;17.60;99.90
67777;DHT22;54576;52.020;5.536;2023-05-10T11:47:49;17.70;99.90
67777;DHT22;54576;52.020;5.536;2023-05-10T11:50:16;17.90;99.90
67777;DHT22;54576;52.020;5.536;2023-05-10T11:52:42;18.00;99.90
67777;DHT22;54576;52.020;5.536;2023-05-10T11:55:08;18.10;99.90
67777;DHT22;54576;52.020;5.536;2023-05-10T11:57:33;18.20;99.90
67777;DHT22;54576;52.020;5.536;2023-05-10T11:59:59;18.30;99.90
67777;DHT22;54576;52.020;5.536;2023-05-10T12:02:25;18.50;99.90
67777;DHT22;54576;52.020;5.536;2023-05-10T12:04:51;18.60;99.90
67777;DHT22;54576;52.020;5.536;2023-05-10T12:07:17;18.80;99.90
67777;DHT22;54576;52.020;5.536;2023-05-10T12:10:03;19.10;99.90
67777;DHT22;54576;52.020;5.536;2023-05-10T12:12:39;19.10;95.90
67777;DHT22;54576;52.020;5.536;2023-05-10T12:15:11;19.10;97.80
67777;DHT22;54576;52.020;5.536;2023-05-10T12:17:38;19.20;99.90
67777;DHT22;54576;52.020;5.536;2023-05-10T12:20:17;19.20;99.90
67777;DHT22;54576;52.020;5.536;2023-05-10T12:22:44;19.10;94.00
67777;DHT22;54576;52.020;5.536;2023-05-10T12:25:12;19.00;78.80
67777;DHT22;54576;52.020;5.536;2023-05-10T12:27:38;19.10;99.90
67777;DHT22;54576;52.020;5.536;2023-05-10T12:30:04;19.00;99.90
67777;DHT22;54576;52.020;5.536;2023-05-10T12:32:44;18.90;99.20
67777;DHT22;54576;52.020;5.536;2023-05-10T12:35:09;18.90;97.40
67777;DHT22;54576;52.020;5.536;2023-05-10T12:37:35;18.70;98.90
67777;DHT22;54576;52.020;5.536;2023-05-10T12:40:09;18.70;99.70
67777;DHT22;54576;52.020;5.536;2023-05-10T12:42:36;18.70;99.30
67777;DHT22;54576;52.020;5.536;2023-05-10T12:45:03;18.80;99.90
67777;DHT22;54576;52.020;5.536;2023-05-10T12:49:55;18.90;99.50
67777;DHT22;54576;52.020;5.536;2023-05-10T12:52:21;18.70;98.30
67777;DHT22;54576;52.020;5.536;2023-05-10T12:54:46;18.50;98.60
67777;DHT22;54576;52.020;5.536;2023-05-10T12:57:13;18.40;99.60
67777;DHT22;54576;52.020;5.536;2023-05-10T12:59:38;18.30;99.80
67777;DHT22;54576;52.020;5.536;2023-05-10T13:02:04;18.30;99.90
67777;DHT22;54576;52.020;5.536;2023-05-10T13:04:31;18.20;99.90
67777;DHT22;54576;52.020;5.536;2023-05-10T13:06:56;18.10;99.90
67777;DHT22;54576;52.020;5.536;2023-05-10T13:09:24;18.00;99.90
67777;DHT22;54576;52.020;5.536;2023-05-10T13:11:50;17.90;99.90
67777;DHT22;54576;52.020;5.536;2023-05-10T13:16:42;17.70;99.90
67777;DHT22;54576;52.020;5.536;2023-05-10T13:19:07;17.50;99.90
67777;DHT22;54576;52.020;5.536;2023-05-10T13:21:33;17.10;99.90
67777;DHT22;54576;52.020;5.536;2023-05-10T13:23:59;16.90;99.90
67777;DHT22;54576;52.020;5.536;2023-05-10T13:26:25;16.70;99.90
67777;DHT22;54576;52.020;5.536;2023-05-10T13:28:51;16.50;99.90
67777;DHT22;54576;52.020;5.536;2023-05-10T13:31:17;16.30;99.90
67777;DHT22;54576;52.020;5.536;2023-05-10T13:33:42;16.20;99.90
67777;DHT22;54576;52.020;5.536;2023-05-10T13:36:08;16.20;99.90
67777;DHT22;54576;52.020;5.536;2023-05-10T13:38:33;16.10;99.90
67777;DHT22;54576;52.020;5.536;2023-05-10T13:40:59;16.00;99.90
67777;DHT22;54576;52.020;5.536;2023-05-10T13:43:24;16.00;99.90
67777;DHT22;54576;52.020;5.536;2023-05-10T13:45:50;15.90;99.90
67777;DHT22;54576;52.020;5.536;2023-05-10T13:48:15;15.90;99.90
67777;DHT22;54576;52.020;5.536;2023-05-10T13:50:41;15.90;99.90
67777;DHT22;54576;52.020;5.536;2023-05-10T13:53:06;15.90;99.90
67777;DHT22;54576;52.020;5.536;2023-05-10T13:55:32;15.80;99.90
67777;DHT22;54576;52.020;5.536;2023-05-10T13:57:58;15.80;99.90
67777;DHT22;54576;52.020;5.536;2023-05-10T14:00:24;15.70;99.90
67777;DHT22;54576;52.020;5.536;2023-05-10T14:02:49;15.80;99.90
67777;DHT22;54576;52.020;5.536;2023-05-10T14:05:15;15.70;99.90
67777;DHT22;54576;52.020;5.536;2023-05-10T14:07:41;15.70;99.90
67777;DHT22;54576;52.020;5.536;2023-05-10T14:10:06;15.60;99.90
67777;DHT22;54576;52.020;5.536;2023-05-10T14:12:32;15.50;99.90
67777;DHT22;54576;52.020;5.536;2023-05-10T14:14:57;15.40;99.90
67777;DHT22;54576;52.020;5.536;2023-05-10T14:17:23;15.40;99.90
67777;DHT22;54576;52.020;5.536;2023-05-10T14:19:49;15.40;99.90
67777;DHT22;54576;52.020;5.536;2023-05-10T14:22:14;15.30;99.90
67777;DHT22;54576;52.020;5.536;2023-05-10T14:24:40;15.30;99.90
67777;DHT22;54576;52.020;5.536;2023-05-10T14:27:06;15.30;99.90
67777;DHT22;54576;52.020;5.536;2023-05-10T14:29:32;15.20;99.90
67777;DHT22;54576;52.020;5.536;2023-05-10T14:31:58;15.20;99.90
67777;DHT22;54576;52.020;5.536;2023-05-10T14:34:23;15.10;99.90
67777;DHT22;54576;52.020;5.536;2023-05-10T14:36:49;15.10;99.90
67777;DHT22;54576;52.020;5.536;2023-05-10T14:39:15;15.10;99.90
67777;DHT22;54576;52.020;5.536;2023-05-10T14:41:40;15.20;99.90
67777;DHT22;54576;52.020;5.536;2023-05-10T14:44:08;15.20;99.90
67777;DHT22;54576;52.020;5.536;2023-05-10T14:46:33;15.20;99.90
67777;DHT22;54576;52.020;5.536;2023-05-10T14:48:59;15.20;99.90
67777;DHT22;54576;52.020;5.536;2023-05-10T14:51:25;15.20;99.90
67777;DHT22;54576;52.020;5.536;2023-05-10T14:53:53;15.20;99.90
67777;DHT22;54576;52.020;5.536;2023-05-10T14:56:19;15.20;99.90
67777;DHT22;54576;52.020;5.536;2023-05-10T14:58:45;15.30;99.90
67777;DHT22;54576;52.020;5.536;2023-05-10T15:01:11;15.40;99.90
67777;DHT22;54576;52.020;5.536;2023-05-10T15:03:37;15.40;99.90
67777;DHT22;54576;52.020;5.536;2023-05-10T15:06:03;15.50;99.90
67777;DHT22;54576;52.020;5.536;2023-05-10T15:08:30;15.60;99.90
67777;DHT22;54576;52.020;5.536;2023-05-10T15:10:55;15.60;99.90
67777;DHT22;54576;52.020;5.536;2023-05-10T15:13:21;15.70;99.90
67777;DHT22;54576;52.020;5.536;2023-05-10T15:15:47;15.70;99.90
67777;DHT22;54576;52.020;5.536;2023-05-10T15:18:12;15.80;99.90
67777;DHT22;54576;52.020;5.536;2023-05-10T15:20:38;15.80;99.90
67777;DHT22;54576;52.020;5.536;2023-05-10T15:23:03;15.80;99.90
67777;DHT22;54576;52.020;5.536;2023-05-10T15:25:29;15.80;99.90
67777;DHT22;54576;52.020;5.536;2023-05-10T15:27:55;15.90;99.90
67777;DHT22;54576;52.020;5.536;2023-05-10T15:30:20;15.90;99.90
67777;DHT22;54576;52.020;5.536;2023-05-10T15:32:46;16.00;99.90
67777;DHT22;54576;52.020;5.536;2023-05-10T15:35:12;16.10;99.90
67777;DHT22;54576;52.020;5.536;2023-05-10T15:37:38;16.20;99.90
67777;DHT22;54576;52.020;5.536;2023-05-10T15:40:04;16.30;99.90
67777;DHT22;54576;52.020;5.536;2023-05-10T15:42:30;16.40;99.90
67777;DHT22;54576;52.020;5.536;2023-05-10T15:44:57;16.50;99.90
67777;DHT22;54576;52.020;5.536;2023-05-10T15:47:23;16.70;99.90
67777;DHT22;54576;52.020;5.536;2023-05-10T15:49:48;16.70;99.90
67777;DHT22;54576;52.020;5.536;2023-05-10T15:52:14;16.80;99.90
67777;DHT22;54576;52.020;5.536;2023-05-10T15:54:39;16.90;99.90
67777;DHT22;54576;52.020;5.536;2023-05-10T15:57:05;17.00;99.90
67777;DHT22;54576;52.020;5.536;2023-05-10T15:59:31;16.90;99.90
67777;DHT22;54576;52.020;5.536;2023-05-10T16:01:57;16.90;99.90
67777;DHT22;54576;52.020;5.536;2023-05-10T16:04:23;16.90;99.90
67777;DHT22;54576;52.020;5.536;2023-05-10T16:06:48;16.90;99.90
67777;DHT22;54576;52.020;5.536;2023-05-10T16:09:14;17.00;99.90